Time;durP1;ratioP1;P1;durP2;ratioP2;P2;SDS_P1;SDS_P2;PMS_P1;PMS_P2;Temp;Humidity;BMP_temperature;BMP_pressure;BME280_temperature;BME280_humidity;BME280_pressure;Samples;Min_cycle;Max_cycle;Signal;HPM_P1;HPM_P2
2023/09/27 00:01:52;;;;;;;6.20;5.50;;;;;;;14.16;100.00;98516.56;5134239;28;20582;-72
2023/09/27 00:04:18;;;;;;;6.67;6.00;;;;;;;14.18;100.00;98521.69;5134557;28;20205;-72
2023/09/27 00:06:45;;;;;;;6.00;5.40;;;;;;;14.23;100.00;98521.84;5134492;28;20228;-72
2023/09/27 00:09:11;;;;;;;7.50;5.97;;;;;;;14.16;100.00;98521.09;5134307;28;20222;-72
2023/09/27 00:11:38;;;;;;;7.17;5.40;;;;;;;14.04;100.00;98523.75;5134027;28;20272;-72
2023/09/27 00:14:04;;;;;;;6.23;5.63;;;;;;;14.11;100.00;98512.97;5134080;28;20686;-72
2023/09/27 00:16:30;;;;;;;6.03;5.50;;;;;;;14.09;100.00;98526.56;5134103;28;20665;-72
2023/09/27 00:18:57;;;;;;;5.77;4.37;;;;;;;14.12;100.00;98525.28;5137061;27;20226;-72
2023/09/27 00:21:24;;;;;;;9.27;5.40;;;;;;;14.13;100.00;98519.72;5138069;27;20252;-72
2023/09/27 00:23:50;;;;;;;5.83;5.23;;;;;;;14.13;100.00;98518.88;5138521;27;20198;-72
2023/09/27 00:26:16;;;;;;;6.83;5.20;;;;;;;14.19;100.00;98531.31;5138481;27;20198;-72
2023/09/27 00:28:43;;;;;;;5.87;5.27;;;;;;;14.15;100.00;98530.19;5138309;27;20229;-72
2023/09/27 00:31:09;;;;;;;6.60;5.30;;;;;;;14.12;100.00;98526.09;5138134;27;20222;-72
2023/09/27 00:33:35;;;;;;;5.90;5.30;;;;;;;14.01;100.00;98520.72;5138372;27;20209;-72
2023/09/27 00:36:02;;;;;;;5.87;5.03;;;;;;;14.01;100.00;98518.84;5138219;27;20206;-72
2023/09/27 00:38:28;;;;;;;6.10;5.00;;;;;;;14.01;100.00;98528.72;5137725;27;20222;-72
2023/09/27 00:40:54;;;;;;;6.10;4.90;;;;;;;13.99;100.00;98525.47;5138246;27;20199;-72
2023/09/27 00:43:32;;;;;;;6.53;5.33;;;;;;;14.00;100.00;98516.41;5138193;27;20205;-72
2023/09/27 00:46:01;;;;;;;5.63;5.13;;;;;;;14.00;100.00;98516.41;5138105;27;20209;-72
2023/09/27 00:48:29;;;;;;;7.80;4.60;;;;;;;13.91;100.00;98512.44;5138040;27;20223;-72
2023/09/27 00:50:56;;;;;;;5.90;5.40;;;;;;;13.94;100.00;98503.97;5137733;27;20615;-72
2023/09/27 00:53:25;;;;;;;5.90;5.30;;;;;;;13.91;100.00;98517.78;5138095;27;20202;-72
2023/09/27 00:55:51;;;;;;;6.17;5.33;;;;;;;13.94;100.00;98515.50;5137593;27;20198;-72
2023/09/27 00:58:20;;;;;;;6.60;5.77;;;;;;;13.93;100.00;98503.16;5137778;27;20245;-72
2023/09/27 01:00:50;;;;;;;5.63;5.13;;;;;;;13.90;100.00;98508.97;5137842;27;20277;-72
2023/09/27 01:03:17;;;;;;;5.50;5.00;;;;;;;13.90;100.00;98513.50;5137760;27;20202;-72
2023/09/27 01:05:43;;;;;;;8.20;5.80;;;;;;;13.88;100.00;98513.72;5137721;27;20213;-72
2023/09/27 01:08:10;;;;;;;6.83;5.50;;;;;;;13.74;100.00;98514.94;5137601;27;20233;-72
2023/09/27 01:10:37;;;;;;;6.03;5.43;;;;;;;13.74;100.00;98522.97;5137181;27;20727;-72
2023/09/27 01:13:04;;;;;;;6.13;5.53;;;;;;;13.74;100.00;98520.28;5137694;27;20220;-72
2023/09/27 01:15:32;;;;;;;5.70;5.20;;;;;;;13.69;100.00;98519.34;5137617;27;20209;-72
2023/09/27 01:18:00;;;;;;;7.27;5.30;;;;;;;13.66;100.00;98517.94;5137454;27;20226;-72
2023/09/27 01:20:28;;;;;;;6.97;5.07;;;;;;;13.74;100.00;98516.81;5137516;27;20205;-72
2023/09/27 01:22:59;;;;;;;6.10;4.50;;;;;;;13.74;100.00;98516.81;5137430;27;20203;-72
2023/09/27 01:25:31;;;;;;;5.30;4.90;;;;;;;13.52;100.00;98523.72;5137420;27;20238;-72
2023/09/27 01:27:59;;;;;;;6.57;5.30;;;;;;;13.50;100.00;98523.94;5137345;27;20250;-72
2023/09/27 01:30:31;;;;;;;5.20;4.80;;;;;;;13.52;100.00;98518.38;5135976;27;20232;-72
2023/09/27 01:32:58;;;;;;;5.10;4.57;;;;;;;13.60;100.00;98516.19;5137307;27;20194;-72
2023/09/27 01:35:24;;;;;;;5.40;4.60;;;;;;;13.59;100.00;98511.88;5137151;27;20263;-72
2023/09/27 01:37:51;;;;;;;4.90;4.43;;;;;;;13.58;100.00;98520.94;5136977;27;20222;-72
2023/09/27 01:40:18;;;;;;;5.07;4.63;;;;;;;13.58;100.00;98528.13;5137139;27;20205;-72
2023/09/27 01:42:45;;;;;;;5.53;4.90;;;;;;;13.56;100.00;98527.56;5136733;27;20616;-72
2023/09/27 01:45:13;;;;;;;5.90;5.20;;;;;;;13.56;100.00;98524.88;5137045;27;20209;-72
2023/09/27 01:47:40;;;;;;;7.90;4.60;;;;;;;13.54;100.00;98529.63;5136887;27;20225;-72
2023/09/27 01:50:10;;;;;;;5.27;4.77;;;;;;;13.47;100.00;98527.03;5136919;27;20210;-72
2023/09/27 01:52:36;;;;;;;5.57;5.00;;;;;;;13.45;100.00;98534.47;5136840;27;20210;-72
2023/09/27 01:55:04;;;;;;;5.83;5.23;;;;;;;13.40;100.00;98528.16;5136483;27;20297;-72
2023/09/27 01:57:31;;;;;;;5.60;5.10;;;;;;;13.48;100.00;98533.22;5136723;27;20222;-72
2023/09/27 01:59:57;;;;;;;5.93;5.33;;;;;;;13.39;100.00;98523.88;5136687;27;20209;-72
2023/09/27 02:02:24;;;;;;;5.57;5.00;;;;;;;13.48;100.00;98527.88;5136646;27;20198;-72
2023/09/27 02:04:50;;;;;;;6.63;4.67;;;;;;;13.45;100.00;98523.78;5136608;27;20198;-72
2023/09/27 02:07:17;;;;;;;6.43;5.17;;;;;;;13.42;100.00;98534.91;5136653;27;20206;-72
2023/09/27 02:09:43;;;;;;;7.00;5.00;;;;;;;13.33;100.00;98540.78;5136573;27;20210;-72
2023/09/27 02:12:09;;;;;;;5.47;4.97;;;;;;;13.33;100.00;98538.09;5136109;27;20719;-72
2023/09/27 02:14:36;;;;;;;5.63;5.13;;;;;;;13.34;100.00;98537.91;5136147;27;20571;-72
2023/09/27 02:17:02;;;;;;;5.73;5.00;;;;;;;13.34;100.00;98545.91;5136290;27;20297;-72
2023/09/27 02:19:28;;;;;;;5.67;5.10;;;;;;;13.35;100.00;98544.88;5136037;27;20207;-72
2023/09/27 02:21:55;;;;;;;5.77;4.90;;;;;;;13.29;100.00;98537.75;5136249;27;20205;-72
2023/09/27 02:24:21;;;;;;;7.10;4.90;;;;;;;13.33;100.00;98541.59;5136146;27;20216;-72
2023/09/27 02:26:48;;;;;;;5.67;5.10;;;;;;;13.38;100.00;98539.06;5136021;27;20208;-72
2023/09/27 02:29:15;;;;;;;5.57;5.07;;;;;;;13.41;100.00;98532.47;5135925;27;20229;-72
2023/09/27 02:31:41;;;;;;;6.37;5.57;;;;;;;13.41;100.00;98538.63;5135597;27;20589;-72
2023/09/27 02:34:08;;;;;;;5.80;5.27;;;;;;;13.40;100.00;98542.34;5135939;27;20293;-72
2023/09/27 02:36:35;;;;;;;5.47;4.97;;;;;;;13.44;100.00;98532.84;5135841;27;20214;-72
2023/09/27 02:39:01;;;;;;;6.23;5.17;;;;;;;13.37;100.00;98537.44;5135477;27;20590;-72
2023/09/27 02:41:27;;;;;;;6.00;5.47;;;;;;;13.40;100.00;98533.50;5135217;27;20545;-72
2023/09/27 02:43:54;;;;;;;6.23;5.50;;;;;;;13.40;100.00;98525.50;5135564;27;20691;-72
2023/09/27 02:46:20;;;;;;;5.93;5.33;;;;;;;13.46;100.00;98522.75;5135434;27;20665;-72
2023/09/27 02:48:46;;;;;;;6.80;6.20;;;;;;;13.43;100.00;98525.84;5135620;27;20227;-72
2023/09/27 02:51:16;;;;;;;6.17;5.33;;;;;;;13.40;100.00;98526.34;5135319;27;20697;-72
2023/09/27 02:53:42;;;;;;;9.90;5.90;;;;;;;13.38;100.00;98522.25;5135318;27;20734;-72
2023/09/27 02:56:09;;;;;;;6.27;5.77;;;;;;;13.32;100.00;98523.97;5134942;27;20206;-72
2023/09/27 02:58:36;;;;;;;7.67;6.00;;;;;;;13.32;100.00;98521.28;5135190;27;20233;-72
2023/09/27 03:01:02;;;;;;;6.10;5.60;;;;;;;13.32;100.00;98523.97;5134883;27;20568;-72
2023/09/27 03:03:30;;;;;;;5.70;5.10;;;;;;;13.29;100.00;98513.72;5135394;27;20239;-72
2023/09/27 03:05:57;;;;;;;6.00;5.40;;;;;;;13.34;100.00;98511.19;5135309;27;20206;-72
2023/09/27 03:08:24;;;;;;;6.47;5.87;;;;;;;13.29;100.00;98508.38;5134887;27;20642;-72
2023/09/27 03:10:51;;;;;;;7.50;6.03;;;;;;;13.30;100.00;98504.66;5135209;27;20202;-72
2023/09/27 03:13:19;;;;;;;6.80;5.40;;;;;;;13.21;100.00;98511.34;5135227;27;20209;-72
2023/09/27 03:15:56;;;;;;;5.83;5.33;;;;;;;13.19;100.00;98507.28;5134854;27;20684;-72
2023/09/27 03:18:22;;;;;;;9.63;5.67;;;;;;;13.11;100.00;98505.72;5135116;27;20624;-72
2023/09/27 03:20:51;;;;;;;6.40;5.80;;;;;;;13.00;100.00;98519.84;5134988;27;20259;-72
2023/09/27 03:23:17;;;;;;;6.40;5.80;;;;;;;12.96;100.00;98518.63;5134835;27;20203;-72
2023/09/27 03:25:46;;;;;;;7.10;6.10;;;;;;;12.96;100.00;98518.63;5134850;27;20275;-72
2023/09/27 03:28:13;;;;;;;6.13;5.60;;;;;;;12.97;100.00;98517.59;5134605;27;20723;-72
2023/09/27 03:30:39;;;;;;;7.87;5.47;;;;;;;13.05;100.00;98522.66;5134106;27;20660;-72
2023/09/27 03:33:06;;;;;;;6.80;5.10;;;;;;;13.03;100.00;98524.72;5134901;27;20201;-72
2023/09/27 03:35:33;;;;;;;5.63;5.13;;;;;;;12.88;100.00;98502.88;5134192;27;20261;-72
2023/09/27 03:38:00;;;;;;;6.17;5.20;;;;;;;12.96;100.00;98502.59;5134202;27;20228;-72
2023/09/27 03:40:26;;;;;;;6.03;5.37;;;;;;;12.90;100.00;98510.69;5134446;27;20228;-72
2023/09/27 03:42:52;;;;;;;7.30;5.90;;;;;;;12.87;100.00;98509.28;5134324;27;20570;-72
2023/09/27 03:45:20;;;;;;;6.27;5.07;;;;;;;12.76;100.00;98511.88;5134267;27;20209;-72
2023/09/27 03:47:48;;;;;;;7.30;5.20;;;;;;;12.92;100.00;98517.44;5134279;27;20229;-72
2023/09/27 03:50:15;;;;;;;5.43;4.93;;;;;;;12.89;100.00;98514.41;5134326;27;20645;-72
2023/09/27 03:52:42;;;;;;;5.33;4.93;;;;;;;12.86;100.00;98521.00;5133387;27;20695;-72
2023/09/27 03:55:09;;;;;;;5.87;5.07;;;;;;;12.84;100.00;98530.25;5134115;27;20205;-72
2023/09/27 03:57:36;;;;;;;5.00;4.33;;;;;;;12.83;100.00;98537.44;5134084;27;20776;-72
2023/09/27 04:00:06;;;;;;;5.77;5.27;;;;;;;12.82;100.00;98534.97;5134568;28;20561;-72
2023/09/27 04:02:32;;;;;;;5.57;5.07;;;;;;;12.86;100.00;98529.00;5134501;28;20582;-72
2023/09/27 04:04:59;;;;;;;5.67;5.17;;;;;;;12.83;100.00;98540.09;5134115;28;20210;-72
2023/09/27 04:07:26;;;;;;;5.70;5.23;;;;;;;12.80;100.00;98537.88;5134290;28;20586;-72
2023/09/27 04:09:52;;;;;;;7.70;5.87;;;;;;;12.83;100.00;98540.09;5134165;28;20209;-72
2023/09/27 04:12:18;;;;;;;7.00;6.10;;;;;;;12.93;100.00;98532.41;5133827;28;20711;-72
2023/09/27 04:14:45;;;;;;;7.43;5.80;;;;;;;12.90;100.00;98526.69;5133931;28;20685;-72
2023/09/27 04:17:11;;;;;;;6.90;5.43;;;;;;;12.89;100.00;98530.41;5133896;28;20667;-72
2023/09/27 04:19:38;;;;;;;6.87;5.40;;;;;;;12.87;100.00;98525.28;5133626;28;20571;-72
2023/09/27 04:22:04;;;;;;;7.53;5.43;;;;;;;12.89;100.00;98535.75;5134187;28;20205;-72
2023/09/27 04:24:31;;;;;;;6.90;5.30;;;;;;;12.68;100.00;98539.66;5133475;28;20208;-72
2023/09/27 04:26:58;;;;;;;8.93;5.80;;;;;;;12.56;100.00;98538.72;5133942;28;20231;-72
2023/09/27 04:29:24;;;;;;;6.27;5.63;;;;;;;12.65;100.00;98536.59;5134055;28;20205;-72
2023/09/27 04:31:50;;;;;;;8.17;5.33;;;;;;;12.61;100.00;98541.56;5134003;27;20550;-72
2023/09/27 04:34:17;;;;;;;7.77;6.00;;;;;;;12.74;100.00;98543.25;5133747;28;20724;-72
2023/09/27 04:36:44;;;;;;;8.63;5.33;;;;;;;12.68;100.00;98536.97;5133797;28;20212;-72
2023/09/27 04:39:12;;;;;;;8.77;5.37;;;;;;;12.62;100.00;98531.72;5133523;28;20776;-72
2023/09/27 04:41:39;;;;;;;5.60;5.10;;;;;;;12.66;100.00;98538.25;5133588;28;20206;-72
2023/09/27 04:44:06;;;;;;;8.73;5.60;;;;;;;12.66;100.00;98543.56;5133636;28;20228;-72
2023/09/27 04:46:33;;;;;;;6.90;5.73;;;;;;;12.52;100.00;98555.41;5133456;28;20201;-72
2023/09/27 04:49:00;;;;;;;6.10;5.50;;;;;;;12.58;100.00;98562.53;5133326;28;20271;-72
2023/09/27 04:51:26;;;;;;;6.27;5.23;;;;;;;12.58;100.00;98559.84;5133540;28;20319;-72
2023/09/27 04:53:52;;;;;;;6.77;5.67;;;;;;;12.47;100.00;98565.88;5133717;28;20205;-71
2023/09/27 04:56:19;;;;;;;9.77;6.13;;;;;;;12.46;100.00;98569.59;5133733;28;20575;-71
2023/09/27 04:58:45;;;;;;;6.60;6.00;;;;;;;12.52;100.00;98566.88;5133341;28;20581;-71
2023/09/27 05:01:11;;;;;;;6.03;5.07;;;;;;;12.46;100.00;98573.09;5133354;28;20692;-71
2023/09/27 05:03:38;;;;;;;7.53;5.60;;;;;;;12.45;100.00;98574.13;5133752;27;20201;-71
2023/09/27 05:06:05;;;;;;;9.00;5.63;;;;;;;12.43;100.00;98568.19;5136869;27;20204;-71
2023/09/27 05:08:31;;;;;;;8.00;5.87;;;;;;;12.47;100.00;98571.22;5136727;27;20606;-71
2023/09/27 05:10:58;;;;;;;6.97;5.60;;;;;;;12.48;100.00;98573.66;5137287;27;20201;-71
2023/09/27 05:13:24;;;;;;;6.33;5.40;;;;;;;12.50;100.00;98571.63;5136942;27;20225;-71
2023/09/27 05:15:52;;;;;;;5.97;5.37;;;;;;;12.56;100.00;98580.56;5136993;27;20204;-72
2023/09/27 05:18:18;;;;;;;6.30;5.27;;;;;;;12.57;100.00;98580.38;5137125;27;20229;-72
2023/09/27 05:20:45;;;;;;;6.77;5.43;;;;;;;12.56;100.00;98586.75;5137016;27;20241;-72
2023/09/27 05:23:12;;;;;;;6.43;5.83;;;;;;;12.50;100.00;98597.47;5136912;27;20279;-72
2023/09/27 05:25:39;;;;;;;6.83;5.60;;;;;;;12.49;100.00;98599.34;5136867;27;20212;-72
2023/09/27 05:28:06;;;;;;;8.13;6.67;;;;;;;12.56;100.00;98596.59;5136456;27;20227;-72
2023/09/27 05:30:32;;;;;;;8.87;6.03;;;;;;;12.54;100.00;98598.66;5136533;27;20274;-72
2023/09/27 05:32:58;;;;;;;6.80;6.10;;;;;;;12.45;100.00;98607.97;5136381;27;20223;-72
2023/09/27 05:35:25;;;;;;;7.40;6.57;;;;;;;12.52;100.00;98601.53;5136517;27;20204;-72
2023/09/27 05:37:51;;;;;;;10.80;5.87;;;;;;;12.59;100.00;98599.66;5136515;27;20232;-72
2023/09/27 05:40:17;;;;;;;7.93;6.00;;;;;;;12.81;100.00;98608.06;5137072;27;20201;-72
2023/09/27 05:42:44;;;;;;;5.70;5.13;;;;;;;12.54;100.00;98612.00;5136325;27;20207;-72
2023/09/27 05:45:11;;;;;;;9.37;6.03;;;;;;;12.66;100.00;98607.59;5136053;27;20219;-72
2023/09/27 05:47:39;;;;;;;8.47;5.97;;;;;;;12.68;100.00;98609.00;5135979;27;20322;-72
2023/09/27 05:50:08;;;;;;;7.87;5.53;;;;;;;12.80;100.00;98609.91;5136240;27;20244;-72
2023/09/27 05:52:35;;;;;;;6.50;5.60;;;;;;;12.64;100.00;98607.81;5135917;27;20265;-72
2023/09/27 05:55:05;;;;;;;7.97;5.80;;;;;;;12.73;100.00;98608.34;5135596;27;20216;-72
2023/09/27 05:57:31;;;;;;;9.60;6.03;;;;;;;12.70;100.00;98604.25;5136157;27;20225;-73
2023/09/27 05:59:58;;;;;;;6.53;6.00;;;;;;;12.77;100.00;98602.38;5136220;27;20257;-72
2023/09/27 06:02:30;;;;;;;7.43;5.67;;;;;;;12.84;100.00;98600.44;5136216;27;20205;-72
2023/09/27 06:04:58;;;;;;;9.87;5.87;;;;;;;12.94;100.00;98599.94;5136123;27;20192;-72
2023/09/27 06:07:25;;;;;;;9.00;6.03;;;;;;;12.99;100.00;98600.94;5135572;27;20705;-72
2023/09/27 06:09:52;;;;;;;8.47;6.57;;;;;;;13.02;100.00;98608.50;5135769;27;20219;-72
2023/09/27 06:12:18;;;;;;;8.07;6.27;;;;;;;13.09;100.00;98614.59;5135481;27;20233;-72
2023/09/27 06:14:44;;;;;;;10.30;7.80;;;;;;;13.23;100.00;98610.75;5135324;27;20213;-72
2023/09/27 06:17:15;;;;;;;10.27;6.97;;;;;;;13.22;100.00;98606.47;5134332;27;20202;-72
2023/09/27 06:19:42;;;;;;;8.27;6.90;;;;;;;13.30;100.00;98616.03;5135425;27;20642;-72
2023/09/27 06:22:08;;;;;;;8.00;7.20;;;;;;;13.50;100.00;98613.91;5135516;27;20202;-72
2023/09/27 06:24:34;;;;;;;8.10;6.83;;;;;;;13.53;100.00;98619.66;5135801;27;20205;-72
2023/09/27 06:27:01;;;;;;;8.47;6.57;;;;;;;13.62;100.00;98618.28;5135578;27;20233;-72
2023/09/27 06:29:27;;;;;;;8.20;6.77;;;;;;;13.66;100.00;98627.47;5135461;27;20745;-72
2023/09/27 06:31:54;;;;;;;7.20;6.53;;;;;;;13.65;100.00;98625.06;5134532;27;20225;-72
2023/09/27 06:34:21;;;;;;;6.80;6.20;;;;;;;13.67;100.00;98629.13;5135382;27;20259;-72
2023/09/27 06:36:48;;;;;;;7.50;5.90;;;;;;;13.68;100.00;98633.44;5135420;27;20206;-72
2023/09/27 06:39:16;;;;;;;7.97;5.80;;;;;;;13.75;100.00;98628.81;5135539;27;20229;-72
2023/09/27 06:41:44;;;;;;;5.97;5.37;;;;;;;13.73;100.00;98636.25;5135424;27;20203;-72
2023/09/27 06:44:12;;;;;;;6.10;5.47;;;;;;;13.72;100.00;98636.47;5135540;27;20317;-72
2023/09/27 06:46:39;;;;;;;6.90;5.77;;;;;;;13.72;100.00;98636.47;5134614;27;20209;-73
2023/09/27 06:49:05;;;;;;;7.00;6.10;;;;;;;13.76;100.00;98633.13;5135341;27;20240;-73
2023/09/27 06:51:32;;;;;;;7.90;6.00;;;;;;;13.82;100.00;98634.91;5135672;27;20202;-73
2023/09/27 06:53:59;;;;;;;6.77;6.17;;;;;;;13.82;100.00;98629.56;5134934;27;20550;-73
2023/09/27 06:56:25;;;;;;;9.20;5.57;;;;;;;13.85;100.00;98631.78;5135387;27;20202;-73
2023/09/27 06:58:52;;;;;;;7.93;5.83;;;;;;;13.94;100.00;98625.09;5134864;27;20596;-73
2023/09/27 07:01:22;;;;;;;8.63;6.80;;;;;;;13.91;100.00;98630.88;5135039;27;20289;-73
2023/09/27 07:03:49;;;;;;;7.03;6.30;;;;;;;13.94;100.00;98621.59;5135018;27;20198;-73
2023/09/27 07:06:15;;;;;;;6.70;6.20;;;;;;;14.04;100.00;98625.34;5134929;27;20552;-73
2023/09/27 07:08:44;;;;;;;7.90;6.10;;;;;;;14.23;100.00;98626.13;5135011;27;20226;-73
2023/09/27 07:11:10;;;;;;;6.60;6.00;;;;;;;14.14;100.00;98625.63;5134931;27;20509;-73
2023/09/27 07:13:37;;;;;;;7.40;6.70;;;;;;;14.31;100.00;98629.31;5134908;27;20237;-73
2023/09/27 07:16:26;;;;;;;7.57;6.33;;;;;;;14.36;100.00;98636.63;5135128;27;20199;-73
2023/09/27 07:18:54;;;;;;;7.80;6.43;;;;;;;14.44;100.00;98630.97;5134672;27;20271;-73
2023/09/27 07:21:21;;;;;;;9.67;6.97;;;;;;;14.41;100.00;98626.06;5134917;27;20205;-73
2023/09/27 07:23:49;;;;;;;6.87;6.17;;;;;;;14.46;100.00;98634.22;5134847;27;20207;-73
2023/09/27 07:26:16;;;;;;;8.63;5.83;;;;;;;14.52;100.00;98630.63;5134852;27;20202;-73
2023/09/27 07:28:42;;;;;;;8.67;6.00;;;;;;;14.55;100.00;98633.66;5133349;27;20227;-73
2023/09/27 07:31:09;;;;;;;7.27;6.00;;;;;;;14.64;100.00;98632.28;5134372;27;20221;-73
2023/09/27 07:33:36;;;;;;;7.70;6.90;;;;;;;14.71;100.00;98633.00;5134633;27;20222;-73
2023/09/27 07:36:04;;;;;;;8.73;6.27;;;;;;;14.68;100.00;98630.78;5134388;27;20669;-73
2023/09/27 07:38:31;;;;;;;8.13;6.47;;;;;;;14.89;100.00;98632.91;5134532;27;20302;-73
2023/09/27 07:40:57;;;;;;;8.63;6.13;;;;;;;14.83;100.00;98627.66;5134526;27;20209;-73
2023/09/27 07:43:23;;;;;;;7.30;6.30;;;;;;;15.04;100.00;98619.03;5134690;27;20199;-73
2023/09/27 07:45:52;;;;;;;7.80;6.17;;;;;;;15.11;100.00;98622.41;5134421;27;20209;-73
2023/09/27 07:48:21;;;;;;;10.30;6.27;;;;;;;15.17;100.00;98618.78;5133808;27;20589;-73
2023/09/27 07:50:48;;;;;;;8.03;6.03;;;;;;;15.21;100.00;98618.09;5134384;27;20297;-73
2023/09/27 07:53:14;;;;;;;8.93;7.10;;;;;;;15.18;100.00;98620.41;5134186;27;20222;-73
2023/09/27 07:55:46;;;;;;;8.73;7.17;;;;;;;15.42;100.00;98630.91;5133943;27;20726;-73
2023/09/27 07:58:13;;;;;;;7.70;6.90;;;;;;;15.55;100.00;98629.81;5134207;27;20592;-73
2023/09/27 08:00:44;;;;;;;8.90;7.50;;;;;;;15.60;100.00;98627.28;5134146;27;20206;-73
2023/09/27 08:03:11;;;;;;;11.70;7.77;;;;;;;15.76;100.00;98634.56;5134467;27;20186;-73
2023/09/27 08:05:43;;;;;;;8.97;6.43;;;;;;;15.65;100.00;98627.38;5134157;28;20202;-73
2023/09/27 08:08:14;;;;;;;9.23;6.00;;;;;;;15.77;100.00;98623.59;5134477;28;20314;-73
2023/09/27 08:10:43;;;;;;;7.23;6.53;;;;;;;15.76;100.00;98627.34;5134633;28;20259;-73
2023/09/27 08:13:19;;;;;;;9.27;5.80;;;;;;;15.85;100.00;98617.88;5134211;28;20245;-73
2023/09/27 08:15:49;;;;;;;6.83;6.00;;;;;;;15.95;100.00;98619.91;5134053;28;20555;-72
2023/09/27 08:18:17;;;;;;;8.93;6.47;;;;;;;16.06;100.00;98621.75;5133967;28;20225;-73
2023/09/27 08:20:43;;;;;;;7.83;7.03;;;;;;;16.04;100.00;98619.31;5134114;28;20209;-73
2023/09/27 08:23:09;;;;;;;8.80;6.50;;;;;;;16.30;100.00;98618.72;5133801;28;20202;-73
2023/09/27 08:25:37;;;;;;;6.37;5.77;;;;;;;16.18;100.00;98614.44;5134190;28;20229;-73
2023/09/27 08:28:05;;;;;;;10.13;5.60;;;;;;;16.13;100.00;98614.34;5134085;28;20317;-73
2023/09/27 08:30:32;;;;;;;9.07;5.70;;;;;;;16.17;100.00;98613.66;5133936;28;20213;-73
2023/09/27 08:32:59;;;;;;;7.30;5.50;;;;;;;16.28;100.00;98603.91;5133394;28;20576;-73
2023/09/27 08:35:25;;;;;;;6.27;5.13;;;;;;;16.50;100.00;98602.97;5133824;28;20210;-73
2023/09/27 08:37:51;;;;;;;6.57;4.80;;;;;;;16.60;100.00;98597.78;5133680;28;20225;-73
2023/09/27 08:40:18;;;;;;;7.27;4.70;;;;;;;16.65;100.00;98597.06;5137094;27;20206;-73
2023/09/27 08:42:49;;;;;;;7.73;5.00;;;;;;;16.89;100.00;98596.63;5137972;27;20198;-73
2023/09/27 08:45:22;;;;;;;5.03;4.50;;;;;;;17.04;100.00;98582.59;5137309;27;20255;-73
2023/09/27 08:47:49;;;;;;;5.37;4.33;;;;;;;17.15;100.00;98593.25;5137958;27;20313;-73
2023/09/27 08:50:18;;;;;;;5.87;4.23;;;;;;;17.31;100.00;98583.50;5137669;27;20251;-73
2023/09/27 08:52:51;;;;;;;6.23;4.40;;;;;;;17.31;100.00;98587.03;5137839;27;20305;-73
2023/09/27 08:55:19;;;;;;;7.77;4.83;;;;;;;17.13;100.00;98583.81;5137786;27;20202;-73
2023/09/27 08:57:49;;;;;;;7.03;4.23;;;;;;;17.45;100.00;98577.56;5137595;27;20229;-73
2023/09/27 09:00:19;;;;;;;7.87;5.23;;;;;;;17.49;100.00;98570.63;5137319;27;20546;-73
2023/09/27 09:02:56;;;;;;;5.07;4.50;;;;;;;17.66;100.00;98568.69;5137659;27;20194;-73
2023/09/27 09:05:27;;;;;;;5.57;4.63;;;;;;;17.85;100.00;98566.47;5137651;27;20225;-73
2023/09/27 09:07:58;;;;;;;8.57;4.73;;;;;;;17.93;100.00;98564.16;5137284;27;20602;-73
2023/09/27 09:10:24;;;;;;;7.47;4.57;;;;;;;18.08;100.00;98564.28;5137158;27;20201;-71
2023/09/27 09:12:52;;;;;;;9.57;5.07;;;;;;;18.14;100.00;98560.56;5136931;27;20222;-71
2023/09/27 09:15:28;;;;;;;8.30;5.43;;;;;;;18.31;100.00;98555.06;5137110;27;20233;-71
2023/09/27 09:17:57;;;;;;;5.93;4.93;;;;;;;18.44;100.00;98552.81;5137195;27;20314;-72
2023/09/27 09:20:31;;;;;;;7.87;4.93;;;;;;;18.52;100.00;98551.50;5137158;27;20238;-72
2023/09/27 09:23:02;;;;;;;7.77;4.67;;;;;;;18.57;100.00;98544.31;5138012;27;20193;-71
2023/09/27 09:25:29;;;;;;;7.43;5.00;;;;;;;18.88;100.00;98551.53;5137057;27;20198;-72
2023/09/27 09:28:07;;;;;;;10.00;6.07;;;;;;;19.13;100.00;98537.34;5136976;27;20303;-71
2023/09/27 09:30:44;;;;;;;8.27;5.83;;;;;;;19.08;100.00;98545.41;5136829;27;20194;-71
2023/09/27 09:33:16;;;;;;;7.23;5.37;;;;;;;19.29;100.00;98544.50;5136420;27;20209;-71
2023/09/27 09:35:42;;;;;;;5.43;3.87;;;;;;;19.24;100.00;98534.50;5137359;27;20201;-72
2023/09/27 09:38:09;;;;;;;8.80;5.07;;;;;;;19.42;100.00;98544.81;5136485;27;20226;-72
2023/09/27 09:40:56;;;;;;;8.77;3.73;;;;;;;19.62;100.00;98532.50;5137149;27;20531;-73
2023/09/27 09:43:36;;;;;;;5.17;3.90;;;;;;;19.60;100.00;98530.06;5137035;27;20194;-73
2023/09/27 09:46:06;;;;;;;7.23;3.87;;;;;;;19.78;100.00;98524.19;5136687;27;20190;-73
2023/09/27 09:48:34;;;;;;;5.20;3.80;;;;;;;19.92;100.00;98522.59;5136484;27;20719;-73
2023/09/27 09:51:06;;;;;;;5.83;3.47;;;;;;;19.96;100.00;98520.97;5135501;27;20218;-73
2023/09/27 09:53:38;;;;;;;4.53;3.60;;;;;;;19.96;100.00;98520.97;5136501;27;20217;-73
2023/09/27 09:56:07;;;;;;;4.90;3.40;;;;;;;20.12;100.00;98516.44;5136442;27;20194;-73
2023/09/27 09:58:38;;;;;;;4.17;2.80;;;;;;;20.16;100.00;98512.91;5136319;27;20225;-73
2023/09/27 10:01:05;;;;;;;3.70;3.30;;;;;;;20.60;100.00;98514.00;5135870;27;20195;-73
2023/09/27 10:03:33;;;;;;;3.40;2.83;;;;;;;20.70;100.00;98505.09;5136088;27;20198;-73
2023/09/27 10:06:01;;;;;;;3.80;3.27;;;;;;;20.45;100.00;98497.81;5135942;27;20206;-73
2023/09/27 10:08:33;;;;;;;3.93;3.27;;;;;;;20.46;100.00;98501.31;5136609;27;20226;-73
2023/09/27 10:11:00;;;;;;;3.37;2.90;;;;;;;20.60;100.00;98502.38;5136022;27;20293;-73
2023/09/27 10:13:27;;;;;;;5.17;2.63;;;;;;;20.93;100.00;98497.22;5135904;27;20761;-73
2023/09/27 10:15:54;;;;;;;2.80;2.20;;;;;;;21.00;99.29;98511.25;5136160;27;20202;-73
2023/09/27 10:18:23;;;;;;;6.03;2.73;;;;;;;20.89;100.00;98496.09;5135715;27;20219;-73
2023/09/27 10:21:12;;;;;;;3.03;2.73;;;;;;;20.80;100.00;98494.25;5135995;27;20215;-73
2023/09/27 10:23:45;;;;;;;3.33;2.80;;;;;;;21.03;100.00;98494.47;5135789;27;20583;-73
2023/09/27 10:26:31;;;;;;;5.07;3.07;;;;;;;21.09;100.00;98487.16;5135534;27;20202;-73
2023/09/27 10:29:03;;;;;;;3.93;3.03;;;;;;;21.06;100.00;98485.00;5135485;27;20233;-73
2023/09/27 10:31:34;;;;;;;3.83;3.07;;;;;;;21.38;97.45;98474.63;5135306;27;20259;-73
2023/09/27 10:34:00;;;;;;;5.23;3.30;;;;;;;21.35;95.87;98475.97;5135178;27;20232;-71
2023/09/27 10:36:29;;;;;;;3.28;2.63;;;;;;;21.42;93.14;98464.84;5135360;27;20315;-71
2023/09/27 10:38:55;;;;;;;4.22;3.00;;;;;;;21.38;90.60;98470.00;5135790;27;20303;-72
2023/09/27 10:41:44;;;;;;;2.95;2.65;;;;;;;21.87;87.00;98470.03;5134983;27;20206;-72
2023/09/27 10:44:12;;;;;;;4.35;2.92;;;;;;;21.70;84.79;98459.56;5135933;27;20202;-72
2023/09/27 10:46:47;;;;;;;4.87;3.10;;;;;;;21.39;80.74;98460.00;5135386;27;20231;-72
2023/09/27 10:49:20;;;;;;;3.17;2.88;;;;;;;21.25;81.27;98456.28;5135298;27;20304;-74
2023/09/27 10:51:47;;;;;;;4.78;2.85;;;;;;;21.81;83.06;98460.31;5135251;27;20278;-71
2023/09/27 10:54:13;;;;;;;3.50;2.60;;;;;;;21.87;77.95;98451.88;5134388;27;20691;-71
2023/09/27 10:56:44;;;;;;;3.63;2.80;;;;;;;21.72;79.02;98452.00;5135228;27;20642;-71
2023/09/27 10:59:13;;;;;;;3.10;2.80;;;;;;;22.10;79.39;98443.03;5134973;27;20313;-71
2023/09/27 11:01:43;;;;;;;4.82;2.83;;;;;;;21.80;77.90;98451.38;5134758;27;20202;-72
2023/09/27 11:04:12;;;;;;;3.37;2.60;;;;;;;21.65;78.19;98445.22;5135491;27;20536;-71
2023/09/27 11:06:39;;;;;;;3.05;2.65;;;;;;;21.84;77.42;98440.81;5134793;27;20214;-72
2023/09/27 11:09:07;;;;;;;2.50;2.30;;;;;;;22.15;69.42;98450.34;5135111;27;20222;-72
2023/09/27 11:11:34;;;;;;;2.25;2.00;;;;;;;22.00;68.42;98447.72;5135051;27;20209;-72
2023/09/27 11:14:01;;;;;;;2.50;1.90;;;;;;;21.87;69.59;98443.78;5134936;27;20229;-72
2023/09/27 11:16:28;;;;;;;4.32;2.30;;;;;;;22.10;70.18;98444.94;5134967;27;20218;-72
2023/09/27 11:18:56;;;;;;;2.40;1.90;;;;;;;22.32;65.97;98446.09;5134727;27;20222;-72
2023/09/27 11:21:23;;;;;;;2.80;2.05;;;;;;;22.18;64.96;98441.63;5134766;27;20205;-71
2023/09/27 11:23:57;;;;;;;2.80;1.95;;;;;;;22.36;63.23;98438.22;5134766;27;20205;-72
2023/09/27 11:26:24;;;;;;;2.72;1.92;;;;;;;22.37;62.17;98426.28;5134632;27;20206;-71
2023/09/27 11:29:05;;;;;;;3.65;1.73;;;;;;;22.52;61.88;98418.84;5134291;27;20649;-71
2023/09/27 11:31:36;;;;;;;2.60;1.70;;;;;;;22.13;62.54;98415.41;5134439;27;20219;-72